createdAt,value
2023-03-07T00:03:03.541Z,38.13
2023-03-07T00:08:05.929Z,38.49
2023-03-07T00:13:09.059Z,38.31
2023-03-07T00:18:11.105Z,38.25
2023-03-07T00:23:13.181Z,38.20
2023-03-07T00:28:16.010Z,38.53
2023-03-07T00:33:18.065Z,38.22
2023-03-07T00:38:20.000Z,38.22
2023-03-07T00:43:22.195Z,38.39
2023-03-07T00:48:24.750Z,38.53
2023-03-07T00:53:26.988Z,38.56
2023-03-07T00:58:30.982Z,38.39
2023-03-07T01:03:34.521Z,38.67
2023-03-07T01:08:36.657Z,38.51
2023-03-07T01:13:38.753Z,38.62
2023-03-07T01:18:40.919Z,38.46
2023-03-07T01:23:43.122Z,38.48
2023-03-07T01:28:45.822Z,38.62
2023-03-07T01:33:52.795Z,38.53
2023-03-07T01:38:56.636Z,38.68
2023-03-07T01:44:03.245Z,38.54
2023-03-07T01:49:29.893Z,38.49
2023-03-07T01:54:34.841Z,38.56
2023-03-07T01:59:44.900Z,38.80
2023-03-07T02:04:53.235Z,38.53
2023-03-07T02:09:57.533Z,38.65
2023-03-07T02:14:59.993Z,38.57
2023-03-07T02:20:34.896Z,38.42
2023-03-07T02:25:47.708Z,38.49
2023-03-07T02:30:55.185Z,38.60
2023-03-07T02:36:00.753Z,38.68
2023-03-07T02:41:04.389Z,38.70
2023-03-07T02:46:06.614Z,38.73
2023-03-07T02:51:08.653Z,38.46
2023-03-07T02:56:11.451Z,38.80
2023-03-07T03:01:13.724Z,38.66
2023-03-07T03:06:15.685Z,38.72
2023-03-07T03:11:21.684Z,38.73
2023-03-07T03:16:23.698Z,38.90
2023-03-07T03:21:26.011Z,38.88
2023-03-07T03:26:28.213Z,38.67
2023-03-07T03:31:30.865Z,38.67
2023-03-07T03:36:32.695Z,38.84
2023-03-07T03:41:34.599Z,38.61
2023-03-07T03:46:37.415Z,38.83
2023-03-07T03:51:39.326Z,38.47
2023-03-07T03:56:41.408Z,38.85
2023-03-07T04:01:43.499Z,38.72
2023-03-07T04:06:45.450Z,38.84
2023-03-07T04:11:47.281Z,38.60
2023-03-07T04:16:49.531Z,38.71
2023-03-07T04:21:51.530Z,38.60
2023-03-07T04:26:53.246Z,38.58
2023-03-07T04:31:55.221Z,38.80
2023-03-07T04:36:57.254Z,38.75
2023-03-07T04:41:59.269Z,39.09
2023-03-07T04:47:01.149Z,38.88
2023-03-07T04:52:03.070Z,38.95
2023-03-07T04:57:05.254Z,40.05
2023-03-07T05:02:08.569Z,39.72
2023-03-07T05:07:10.636Z,39.59
2023-03-07T05:12:12.681Z,39.27
2023-03-07T05:17:15.673Z,39.42
2023-03-07T05:22:17.674Z,39.16
2023-03-07T05:27:19.794Z,39.09
2023-03-07T05:32:21.931Z,39.32
2023-03-07T05:37:23.899Z,39.05
2023-03-07T05:42:26.090Z,39.04
2023-03-07T05:47:28.157Z,39.07
2023-03-07T05:52:30.052Z,39.21
2023-03-07T05:57:32.170Z,39.28
2023-03-07T06:02:34.146Z,38.96
2023-03-07T06:07:36.272Z,38.97
2023-03-07T06:12:38.824Z,39.00
2023-03-07T06:17:40.874Z,39.13
2023-03-07T06:22:42.717Z,38.90
2023-03-07T06:27:44.733Z,39.07
2023-03-07T06:32:46.798Z,38.93
2023-03-07T06:37:50.542Z,38.64
2023-03-07T06:42:53.929Z,38.86
2023-03-07T06:47:56.040Z,38.84
2023-03-07T06:52:57.940Z,38.58
2023-03-07T06:57:59.766Z,38.71
2023-03-07T07:03:01.859Z,38.92
2023-03-07T07:08:03.936Z,38.57
2023-03-07T07:13:06.210Z,38.67
2023-03-07T07:18:10.408Z,38.48
2023-03-07T07:23:13.202Z,39.11
2023-03-07T07:28:15.179Z,40.29
2023-03-07T07:33:17.475Z,40.41
2023-03-07T07:38:19.401Z,40.33
2023-03-07T07:43:21.145Z,40.42
2023-03-07T07:48:23.283Z,40.18
2023-03-07T07:53:25.129Z,40.16
2023-03-07T07:58:27.137Z,40.02
2023-03-07T08:03:29.201Z,39.86
2023-03-07T08:08:31.340Z,40.19
2023-03-07T08:13:33.564Z,39.99
2023-03-07T08:18:35.478Z,39.53
2023-03-07T08:23:40.004Z,39.32
2023-03-07T08:28:42.487Z,39.48
2023-03-07T08:33:44.577Z,38.95
2023-03-07T08:38:52.154Z,38.86
2023-03-07T08:43:56.517Z,39.10
2023-03-07T08:48:58.907Z,39.07
2023-03-07T08:54:00.693Z,38.67
2023-03-07T08:59:04.452Z,38.87
2023-03-07T09:04:06.870Z,38.55
2023-03-07T09:09:09.138Z,38.43
2023-03-07T09:14:11.312Z,38.46
2023-03-07T09:19:13.319Z,38.64
2023-03-07T09:24:15.527Z,38.74
2023-03-07T09:29:17.332Z,38.68
2023-03-07T09:34:19.438Z,38.39
2023-03-07T09:39:21.302Z,38.61
2023-03-07T09:44:44.866Z,38.64
2023-03-07T09:49:54.370Z,38.17
2023-03-07T09:55:05.282Z,38.36
2023-03-07T10:00:21.972Z,38.11
2023-03-07T10:05:24.227Z,38.11
2023-03-07T10:10:37.281Z,38.42
2023-03-07T10:15:47.108Z,38.03
2023-03-07T10:21:10.850Z,37.92
2023-03-07T10:26:21.880Z,37.93
2023-03-07T10:31:32.521Z,38.25
2023-03-07T10:36:49.044Z,38.14
2023-03-07T10:41:55.251Z,37.96
2023-03-07T10:46:59.134Z,37.95
2023-03-07T10:52:07.036Z,37.82
2023-03-07T10:57:15.092Z,38.10
2023-03-07T11:02:40.660Z,37.95
2023-03-07T11:07:42.966Z,38.04
2023-03-07T11:12:46.436Z,38.09
2023-03-07T11:17:49.676Z,37.67
2023-03-07T11:23:14.400Z,37.96
2023-03-07T11:28:42.480Z,37.95
2023-03-07T11:34:02.828Z,37.63
2023-03-07T11:39:18.346Z,37.88
2023-03-07T11:44:57.673Z,38.08
2023-03-07T11:50:22.156Z,37.99
2023-03-07T11:56:21.401Z,37.81
2023-03-07T12:01:25.938Z,37.84
2023-03-07T12:06:34.149Z,37.64
2023-03-07T12:11:44.848Z,37.94
2023-03-07T12:16:59.199Z,37.65
2023-03-07T12:22:16.183Z,37.91
2023-03-07T12:27:30.154Z,38.04
2023-03-07T12:32:35.856Z,38.01
2023-03-07T12:37:44.719Z,37.59
2023-03-07T12:43:05.673Z,37.48
2023-03-07T12:48:37.125Z,37.76
2023-03-07T12:53:55.925Z,37.57
2023-03-07T12:59:06.120Z,37.45
2023-03-07T13:04:23.232Z,37.86
2023-03-07T13:09:26.952Z,37.53
2023-03-07T13:14:49.133Z,37.80
2023-03-07T13:19:53.347Z,37.68
2023-03-07T13:25:16.056Z,37.79
2023-03-07T13:30:29.205Z,37.48
2023-03-07T13:35:34.381Z,37.65
2023-03-07T13:40:37.130Z,37.61
2023-03-07T13:45:39.127Z,37.58
2023-03-07T13:50:53.332Z,37.59
2023-03-07T13:56:16.790Z,37.70
2023-03-07T14:01:25.223Z,37.48
2023-03-07T14:06:36.578Z,37.52
2023-03-07T14:12:02.898Z,37.64
2023-03-07T14:17:38.566Z,37.70
2023-03-07T14:22:54.876Z,37.59
2023-03-07T14:28:01.202Z,37.68
2023-03-07T14:33:03.473Z,37.47
2023-03-07T14:38:21.768Z,37.62
2023-03-07T14:43:50.957Z,37.58
2023-03-07T14:48:58.769Z,37.60
2023-03-07T14:54:07.574Z,37.59
2023-03-07T14:59:26.096Z,37.61
2023-03-07T15:04:33.675Z,37.35
2023-03-07T15:09:35.836Z,37.58
2023-03-07T15:14:47.775Z,37.51
2023-03-07T15:20:18.874Z,37.63
2023-03-07T15:25:25.681Z,37.61
2023-03-07T15:30:38.233Z,37.37
2023-03-07T15:35:41.063Z,37.23
2023-03-07T15:40:43.527Z,37.43
2023-03-07T15:46:04.073Z,37.36
2023-03-07T15:51:15.686Z,37.42
2023-03-07T15:56:30.815Z,37.32
2023-03-07T16:01:32.976Z,37.51
2023-03-07T16:06:42.494Z,37.27
2023-03-07T16:11:46.224Z,37.28
2023-03-07T16:16:48.491Z,37.33
2023-03-07T16:21:50.441Z,37.63
2023-03-07T16:26:52.417Z,37.79
2023-03-07T16:31:54.466Z,37.73
2023-03-07T16:36:56.593Z,37.44
2023-03-07T16:41:58.529Z,37.52
2023-03-07T16:47:06.619Z,37.33
2023-03-07T16:52:12.505Z,37.61
2023-03-07T16:57:17.072Z,37.63
2023-03-07T17:02:21.402Z,37.56
2023-03-07T17:07:24.152Z,37.41
2023-03-07T17:12:26.064Z,37.75
2023-03-07T17:17:33.450Z,37.76
2023-03-07T17:22:35.434Z,37.70
2023-03-07T17:27:41.343Z,37.83
2023-03-07T17:32:47.021Z,37.34
2023-03-07T17:37:52.014Z,38.31
2023-03-07T17:42:55.157Z,38.60
2023-03-07T17:47:57.360Z,38.97
2023-03-07T17:52:59.435Z,39.07
2023-03-07T17:58:01.376Z,38.73
2023-03-07T18:03:03.662Z,39.10
2023-03-07T18:08:05.954Z,39.00
2023-03-07T18:13:09.720Z,40.76
2023-03-07T18:18:11.756Z,41.24
2023-03-07T18:23:13.957Z,41.12
2023-03-07T18:28:15.954Z,40.84
2023-03-07T18:33:17.927Z,40.67
2023-03-07T18:38:20.453Z,40.53
2023-03-07T18:43:22.635Z,39.76
2023-03-07T18:48:26.016Z,39.46
2023-03-07T18:53:28.365Z,39.33
2023-03-07T18:58:30.865Z,38.82
2023-03-07T19:03:32.693Z,38.82
2023-03-07T19:08:35.280Z,38.74
2023-03-07T19:13:37.208Z,38.46
2023-03-07T19:18:39.383Z,38.71
2023-03-07T19:23:41.219Z,38.47
2023-03-07T19:28:43.920Z,38.66
2023-03-07T19:33:47.274Z,38.16
2023-03-07T19:38:50.859Z,38.12
2023-03-07T19:43:53.208Z,38.20
2023-03-07T19:48:56.013Z,39.75
2023-03-07T19:53:59.009Z,39.47
2023-03-07T19:59:02.926Z,39.40
2023-03-07T20:04:06.609Z,39.39
2023-03-07T20:09:10.101Z,38.84
2023-03-07T20:14:12.476Z,38.97
2023-03-07T20:19:14.861Z,39.00
2023-03-07T20:24:18.504Z,39.17
2023-03-07T20:29:20.422Z,38.68
2023-03-07T20:34:25.411Z,39.04
2023-03-07T20:39:27.494Z,39.12
2023-03-07T20:44:29.384Z,38.89
2023-03-07T20:49:31.183Z,42.01
2023-03-07T20:54:33.200Z,40.89
2023-03-07T20:59:34.953Z,40.73
2023-03-07T21:04:36.874Z,40.60
2023-03-07T21:09:38.909Z,40.44
2023-03-07T21:14:40.912Z,40.26
2023-03-07T21:19:42.697Z,40.07
2023-03-07T21:24:44.821Z,40.51
2023-03-07T21:29:46.608Z,40.92
2023-03-07T21:34:48.624Z,40.45
2023-03-07T21:39:50.417Z,39.91
2023-03-07T21:44:52.313Z,39.40
2023-03-07T21:49:54.340Z,41.03
2023-03-07T21:54:56.335Z,42.55
2023-03-07T21:59:58.225Z,40.93
2023-03-07T22:04:59.964Z,40.64
2023-03-07T22:10:01.984Z,40.52
2023-03-07T22:15:04.716Z,39.93
2023-03-07T22:20:07.008Z,40.15
2023-03-07T22:25:09.717Z,39.90
2023-03-07T22:30:12.072Z,39.64
2023-03-07T22:35:14.056Z,39.82
2023-03-07T22:40:15.971Z,39.76
2023-03-07T22:45:17.923Z,39.67
2023-03-07T22:50:19.993Z,39.26
2023-03-07T22:55:22.544Z,39.33
2023-03-07T23:00:24.473Z,39.21
2023-03-07T23:05:26.307Z,39.22
2023-03-07T23:10:30.052Z,39.16
2023-03-07T23:15:32.088Z,39.17
2023-03-07T23:20:35.930Z,39.22
2023-03-07T23:25:44.654Z,39.20
2023-03-07T23:30:46.713Z,39.08
2023-03-07T23:35:48.869Z,39.27
2023-03-07T23:40:50.989Z,39.35
2023-03-07T23:45:53.112Z,39.31
2023-03-07T23:50:55.082Z,38.94
2023-03-07T23:55:57.156Z,38.86
